Redding, Connecticut
Current Conditions -  °F | °C
As of 7:53 PM on Wednesday 22 Oct 2014 (Local Time) from KDXR Reporting Station
Moderate Rain Moderate Rain  
Wind Chill: 50°   Ceiling: 2300
Heat Index: 50°   Visibility: 4mi
Dew Point: 45°   Wind: 16mph
Humidity: 83%   Direction: 10°N
Pressure: 29.83"   Gusts: 23mph
Location:  41.3°N, 73.38°W
Report Text: KDXR 222353Z 01014G20KT 350V050 4SM RA SCT017 BKN023 OVC029 10/07 A2983 RMK AO2 SLP100 P0012 60019 T01000072 10122 20100 58014
Loading
Personal Weather Stations






























Interactive Weather Map
Tropical Storm Tracking
New forecast layout! Learn more

10-Day Weather Forecast

Advertisements
Track Severe Weather on mobile